This is the latest recevied weather packets stored in our database for station/object RN1M-13. If no packets are shown the sender has not sent any weather packets the latest 10 day(s).
| Time | Temp. | Humidity | Pressure | Rain* | Wind** | Luminosity | Snow |
|---|---|---|---|---|---|---|---|
| 1787671342 | 18.89° C | 100% | 1017.7 hPa | - | - | - | - |
| 1787670442 | 18.89° C | 100% | 1018.7 hPa | - | - | - | - |
| 1787669544 | 17.78° C | 100% | 1019.4 hPa | - | - | - | - |
| 1787668646 | 18.33° C | 100% | 1020 hPa | - | - | - | - |
| 1787667746 | 17.22° C | 100% | 1019.5 hPa | - | - | - | - |
| 1787666846 | 18.33° C | 100% | 1017.9 hPa | - | - | - | - |
| 1787665946 | 18.33° C | 100% | 1017.7 hPa | - | - | - | - |
| 1787665045 | 18.33° C | 100% | 1018.3 hPa | - | - | - | - |
| 1787664145 | 17.78° C | 100% | 1018.5 hPa | - | - | - | - |
| 1787663245 | 17.22° C | 100% | 1017.8 hPa | - | - | - | - |
| 1787662345 | 18.89° C | 100% | 1016 hPa | - | - | - | - |
| 1787661445 | 19.44° C | 100% | 1016 hPa | - | - | - | - |
| 1787660545 | 17.78° C | 100% | 1016.6 hPa | - | - | - | - |
| 1787659645 | 18.33° C | 100% | 1016.2 hPa | - | - | - | - |
| 1787658747 | 18.33° C | 100% | 1015.8 hPa | - | - | - | - |
| 1787657848 | 18.89° C | 100% | 1016.1 hPa | - | - | - | - |
| 1787656948 | 18.89° C | 100% | 1016 hPa | - | - | - | - |
| 1787656048 | 17.78° C | 100% | 1016.5 hPa | - | - | - | - |
| 1787655148 | 18.89° C | 100% | 1016.3 hPa | - | - | - | - |
| 1787654248 | 17.78° C | 100% | 1016.8 hPa | - | - | - | - |
| 1787653348 | 18.33° C | 100% | 1016.7 hPa | - | - | - | - |
| 1787652646 | 18.33° C | 100% | 1016.9 hPa | - | - | - | - |
| 1787652448 | 18.33° C | 100% | 1016.9 hPa | - | - | - | - |
| 1787651548 | 17.22° C | 100% | 1017.4 hPa | - | - | - | - |
| 1787650648 | 17.22° C | 100% | 1017.7 hPa | - | - | - | - |
* Rain since midnight (hover to see other rain measurements)
** Current wind speed in m/s (hover to see current wind gust speed)